sensor_id;sensor_type;location;lat;lon;timestamp;P1;durP1;ratioP1;P2;durP2;ratioP2
20731;SDS011;10527;52.124;5.196;2022-10-26T00:01:09;4.03;;;2.97;;
20731;SDS011;10527;52.124;5.196;2022-10-26T00:03:39;5.88;;;2.28;;
20731;SDS011;10527;52.124;5.196;2022-10-26T00:06:21;3.20;;;2.85;;
20731;SDS011;10527;52.124;5.196;2022-10-26T00:08:52;5.97;;;2.92;;
20731;SDS011;10527;52.124;5.196;2022-10-26T00:11:20;5.85;;;2.92;;
20731;SDS011;10527;52.124;5.196;2022-10-26T00:13:48;6.00;;;2.95;;
20731;SDS011;10527;52.124;5.196;2022-10-26T00:16:18;3.58;;;2.60;;
20731;SDS011;10527;52.124;5.196;2022-10-26T00:18:50;3.88;;;2.80;;
20731;SDS011;10527;52.124;5.196;2022-10-26T00:21:17;5.15;;;2.80;;
20731;SDS011;10527;52.124;5.196;2022-10-26T00:23:44;5.32;;;3.45;;
20731;SDS011;10527;52.124;5.196;2022-10-26T00:26:11;4.97;;;2.80;;
20731;SDS011;10527;52.124;5.196;2022-10-26T00:28:38;4.90;;;3.05;;
20731;SDS011;10527;52.124;5.196;2022-10-26T00:31:06;5.35;;;3.00;;
20731;SDS011;10527;52.124;5.196;2022-10-26T00:33:38;6.97;;;2.90;;
20731;SDS011;10527;52.124;5.196;2022-10-26T00:36:05;5.07;;;2.67;;
20731;SDS011;10527;52.124;5.196;2022-10-26T00:38:35;5.93;;;2.97;;
20731;SDS011;10527;52.124;5.196;2022-10-26T00:41:03;4.38;;;2.97;;
20731;SDS011;10527;52.124;5.196;2022-10-26T00:45:56;4.97;;;3.28;;
20731;SDS011;10527;52.124;5.196;2022-10-26T00:48:36;4.75;;;2.95;;
20731;SDS011;10527;52.124;5.196;2022-10-26T00:51:13;4.78;;;2.58;;
20731;SDS011;10527;52.124;5.196;2022-10-26T00:53:50;4.50;;;2.63;;
20731;SDS011;10527;52.124;5.196;2022-10-26T00:56:18;4.30;;;2.88;;
20731;SDS011;10527;52.124;5.196;2022-10-26T00:58:45;3.80;;;2.65;;
20731;SDS011;10527;52.124;5.196;2022-10-26T01:01:13;4.45;;;3.28;;
20731;SDS011;10527;52.124;5.196;2022-10-26T01:03:40;5.30;;;3.05;;
20731;SDS011;10527;52.124;5.196;2022-10-26T01:06:09;6.63;;;3.00;;
20731;SDS011;10527;52.124;5.196;2022-10-26T01:08:40;4.90;;;2.67;;
20731;SDS011;10527;52.124;5.196;2022-10-26T01:11:08;4.88;;;2.85;;
20731;SDS011;10527;52.124;5.196;2022-10-26T01:13:37;2.78;;;2.22;;
20731;SDS011;10527;52.124;5.196;2022-10-26T01:18:52;4.28;;;2.35;;
20731;SDS011;10527;52.124;5.196;2022-10-26T01:27:46;4.75;;;2.05;;
20731;SDS011;10527;52.124;5.196;2022-10-26T01:30:18;3.38;;;2.00;;
20731;SDS011;10527;52.124;5.196;2022-10-26T01:33:09;7.60;;;3.00;;
20731;SDS011;10527;52.124;5.196;2022-10-26T01:36:06;4.05;;;2.10;;
20731;SDS011;10527;52.124;5.196;2022-10-26T01:39:00;3.70;;;2.13;;
20731;SDS011;10527;52.124;5.196;2022-10-26T01:41:47;6.15;;;2.60;;
20731;SDS011;10527;52.124;5.196;2022-10-26T01:47:14;4.00;;;1.50;;
20731;SDS011;10527;52.124;5.196;2022-10-26T01:49:55;6.30;;;2.00;;
20731;SDS011;10527;52.124;5.196;2022-10-26T01:52:24;2.55;;;2.00;;
20731;SDS011;10527;52.124;5.196;2022-10-26T01:54:58;3.67;;;1.70;;
20731;SDS011;10527;52.124;5.196;2022-10-26T01:57:27;2.83;;;1.73;;
20731;SDS011;10527;52.124;5.196;2022-10-26T02:00:09;2.88;;;1.60;;
20731;SDS011;10527;52.124;5.196;2022-10-26T02:11:19;3.10;;;1.92;;
20731;SDS011;10527;52.124;5.196;2022-10-26T02:14:06;2.33;;;1.48;;
20731;SDS011;10527;52.124;5.196;2022-10-26T02:16:56;2.05;;;1.33;;
20731;SDS011;10527;52.124;5.196;2022-10-26T02:19:40;3.30;;;1.83;;
20731;SDS011;10527;52.124;5.196;2022-10-26T02:22:35;5.47;;;1.63;;
20731;SDS011;10527;52.124;5.196;2022-10-26T02:25:10;3.03;;;1.80;;
20731;SDS011;10527;52.124;5.196;2022-10-26T02:27:46;6.30;;;1.75;;
20731;SDS011;10527;52.124;5.196;2022-10-26T02:30:20;2.83;;;1.73;;
20731;SDS011;10527;52.124;5.196;2022-10-26T02:32:49;6.15;;;1.80;;
20731;SDS011;10527;52.124;5.196;2022-10-26T02:35:24;3.28;;;2.00;;
20731;SDS011;10527;52.124;5.196;2022-10-26T02:37:56;3.45;;;1.80;;
20731;SDS011;10527;52.124;5.196;2022-10-26T02:40:28;3.20;;;1.60;;
20731;SDS011;10527;52.124;5.196;2022-10-26T02:42:58;3.08;;;1.75;;
20731;SDS011;10527;52.124;5.196;2022-10-26T02:45:33;5.22;;;2.05;;
20731;SDS011;10527;52.124;5.196;2022-10-26T02:48:08;3.88;;;2.10;;
20731;SDS011;10527;52.124;5.196;2022-10-26T02:50:42;3.03;;;1.95;;
20731;SDS011;10527;52.124;5.196;2022-10-26T02:53:28;6.53;;;2.22;;
20731;SDS011;10527;52.124;5.196;2022-10-26T02:56:23;3.53;;;1.98;;
20731;SDS011;10527;52.124;5.196;2022-10-26T02:59:01;2.60;;;1.70;;
20731;SDS011;10527;52.124;5.196;2022-10-26T03:01:32;3.25;;;2.00;;
20731;SDS011;10527;52.124;5.196;2022-10-26T03:04:01;4.05;;;1.90;;
20731;SDS011;10527;52.124;5.196;2022-10-26T03:06:32;3.72;;;1.60;;
20731;SDS011;10527;52.124;5.196;2022-10-26T03:08:59;3.97;;;2.10;;
20731;SDS011;10527;52.124;5.196;2022-10-26T03:11:25;3.15;;;1.40;;
20731;SDS011;10527;52.124;5.196;2022-10-26T03:13:52;3.22;;;1.80;;
20731;SDS011;10527;52.124;5.196;2022-10-26T03:16:19;3.92;;;1.90;;
20731;SDS011;10527;52.124;5.196;2022-10-26T03:18:46;4.28;;;1.52;;
20731;SDS011;10527;52.124;5.196;2022-10-26T03:21:12;3.10;;;1.60;;
20731;SDS011;10527;52.124;5.196;2022-10-26T03:23:39;4.32;;;1.90;;
20731;SDS011;10527;52.124;5.196;2022-10-26T03:26:07;3.25;;;1.77;;
20731;SDS011;10527;52.124;5.196;2022-10-26T03:28:34;4.28;;;1.60;;
20731;SDS011;10527;52.124;5.196;2022-10-26T03:31:02;5.40;;;1.60;;
20731;SDS011;10527;52.124;5.196;2022-10-26T03:33:28;3.65;;;1.60;;
20731;SDS011;10527;52.124;5.196;2022-10-26T03:35:58;4.43;;;1.40;;
20731;SDS011;10527;52.124;5.196;2022-10-26T03:38:24;2.97;;;1.40;;
20731;SDS011;10527;52.124;5.196;2022-10-26T03:40:51;5.32;;;2.03;;
20731;SDS011;10527;52.124;5.196;2022-10-26T03:43:18;1.38;;;1.20;;
20731;SDS011;10527;52.124;5.196;2022-10-26T03:45:45;4.22;;;2.00;;
20731;SDS011;10527;52.124;5.196;2022-10-26T03:48:12;3.47;;;1.77;;
20731;SDS011;10527;52.124;5.196;2022-10-26T03:50:39;5.15;;;1.88;;
20731;SDS011;10527;52.124;5.196;2022-10-26T03:53:05;9.70;;;2.13;;
20731;SDS011;10527;52.124;5.196;2022-10-26T03:55:36;3.00;;;1.45;;
20731;SDS011;10527;52.124;5.196;2022-10-26T03:58:03;2.17;;;1.42;;
20731;SDS011;10527;52.124;5.196;2022-10-26T04:00:29;2.83;;;1.30;;
20731;SDS011;10527;52.124;5.196;2022-10-26T04:02:57;2.47;;;1.52;;
20731;SDS011;10527;52.124;5.196;2022-10-26T04:05:25;5.50;;;1.42;;
20731;SDS011;10527;52.124;5.196;2022-10-26T04:07:55;3.47;;;1.20;;
20731;SDS011;10527;52.124;5.196;2022-10-26T04:10:26;2.92;;;1.30;;
20731;SDS011;10527;52.124;5.196;2022-10-26T04:12:54;3.17;;;1.30;;
20731;SDS011;10527;52.124;5.196;2022-10-26T04:15:21;7.35;;;1.60;;
20731;SDS011;10527;52.124;5.196;2022-10-26T04:17:57;2.83;;;1.50;;
20731;SDS011;10527;52.124;5.196;2022-10-26T04:20:27;8.57;;;1.55;;
20731;SDS011;10527;52.124;5.196;2022-10-26T04:23:05;9.93;;;2.05;;
20731;SDS011;10527;52.124;5.196;2022-10-26T04:25:34;3.78;;;1.45;;
20731;SDS011;10527;52.124;5.196;2022-10-26T04:28:03;3.22;;;1.65;;
20731;SDS011;10527;52.124;5.196;2022-10-26T04:30:32;3.03;;;1.38;;
20731;SDS011;10527;52.124;5.196;2022-10-26T04:33:01;2.92;;;1.80;;
20731;SDS011;10527;52.124;5.196;2022-10-26T04:35:29;3.40;;;1.10;;
20731;SDS011;10527;52.124;5.196;2022-10-26T04:37:59;3.28;;;1.35;;
20731;SDS011;10527;52.124;5.196;2022-10-26T04:40:32;4.22;;;1.92;;
20731;SDS011;10527;52.124;5.196;2022-10-26T04:43:00;3.08;;;1.50;;
20731;SDS011;10527;52.124;5.196;2022-10-26T04:45:27;5.20;;;1.58;;
20731;SDS011;10527;52.124;5.196;2022-10-26T04:48:03;1.95;;;1.50;;
20731;SDS011;10527;52.124;5.196;2022-10-26T04:50:37;3.65;;;1.75;;
20731;SDS011;10527;52.124;5.196;2022-10-26T04:53:05;5.78;;;1.70;;
20731;SDS011;10527;52.124;5.196;2022-10-26T04:55:34;3.65;;;1.65;;
20731;SDS011;10527;52.124;5.196;2022-10-26T04:58:01;3.88;;;1.13;;
20731;SDS011;10527;52.124;5.196;2022-10-26T05:00:30;5.75;;;1.45;;
20731;SDS011;10527;52.124;5.196;2022-10-26T05:02:59;2.30;;;1.30;;
20731;SDS011;10527;52.124;5.196;2022-10-26T05:05:31;4.22;;;1.83;;
20731;SDS011;10527;52.124;5.196;2022-10-26T05:08:00;4.82;;;1.60;;
20731;SDS011;10527;52.124;5.196;2022-10-26T05:10:27;4.70;;;1.63;;
20731;SDS011;10527;52.124;5.196;2022-10-26T05:12:54;4.50;;;1.42;;
20731;SDS011;10527;52.124;5.196;2022-10-26T05:15:25;4.20;;;1.40;;
20731;SDS011;10527;52.124;5.196;2022-10-26T05:18:03;3.60;;;1.42;;
20731;SDS011;10527;52.124;5.196;2022-10-26T05:20:33;3.20;;;1.17;;
20731;SDS011;10527;52.124;5.196;2022-10-26T05:23:02;2.60;;;1.70;;
20731;SDS011;10527;52.124;5.196;2022-10-26T05:25:33;5.10;;;1.83;;
20731;SDS011;10527;52.124;5.196;2022-10-26T05:28:04;3.40;;;1.40;;
20731;SDS011;10527;52.124;5.196;2022-10-26T05:30:34;4.63;;;1.50;;
20731;SDS011;10527;52.124;5.196;2022-10-26T05:33:01;3.58;;;1.60;;
20731;SDS011;10527;52.124;5.196;2022-10-26T05:35:28;4.10;;;1.70;;
20731;SDS011;10527;52.124;5.196;2022-10-26T05:37:55;2.60;;;1.58;;
20731;SDS011;10527;52.124;5.196;2022-10-26T05:40:23;2.92;;;1.90;;
20731;SDS011;10527;52.124;5.196;2022-10-26T05:42:51;2.65;;;1.70;;
20731;SDS011;10527;52.124;5.196;2022-10-26T05:45:18;5.53;;;1.80;;
20731;SDS011;10527;52.124;5.196;2022-10-26T05:47:45;3.78;;;1.90;;
20731;SDS011;10527;52.124;5.196;2022-10-26T05:50:13;4.15;;;2.10;;
20731;SDS011;10527;52.124;5.196;2022-10-26T05:52:44;2.90;;;2.08;;
20731;SDS011;10527;52.124;5.196;2022-10-26T05:55:14;5.03;;;2.05;;
20731;SDS011;10527;52.124;5.196;2022-10-26T05:57:42;4.22;;;2.25;;
20731;SDS011;10527;52.124;5.196;2022-10-26T06:00:21;4.30;;;1.90;;
20731;SDS011;10527;52.124;5.196;2022-10-26T06:05:44;12.05;;;2.08;;
20731;SDS011;10527;52.124;5.196;2022-10-26T06:08:20;4.07;;;2.38;;
20731;SDS011;10527;52.124;5.196;2022-10-26T06:13:30;3.10;;;2.20;;
20731;SDS011;10527;52.124;5.196;2022-10-26T06:21:31;4.22;;;2.40;;
20731;SDS011;10527;52.124;5.196;2022-10-26T06:27:29;4.68;;;2.28;;
20731;SDS011;10527;52.124;5.196;2022-10-26T06:30:47;5.03;;;2.13;;
20731;SDS011;10527;52.124;5.196;2022-10-26T06:33:17;4.00;;;2.33;;
20731;SDS011;10527;52.124;5.196;2022-10-26T06:38:43;4.88;;;2.30;;
20731;SDS011;10527;52.124;5.196;2022-10-26T06:41:11;3.88;;;2.10;;
20731;SDS011;10527;52.124;5.196;2022-10-26T06:43:40;5.07;;;2.60;;
20731;SDS011;10527;52.124;5.196;2022-10-26T06:52:17;4.63;;;2.30;;
20731;SDS011;10527;52.124;5.196;2022-10-26T06:55:13;4.75;;;2.08;;
20731;SDS011;10527;52.124;5.196;2022-10-26T06:58:11;6.00;;;2.75;;
20731;SDS011;10527;52.124;5.196;2022-10-26T07:01:02;5.68;;;2.40;;
20731;SDS011;10527;52.124;5.196;2022-10-26T07:03:29;2.92;;;1.85;;
20731;SDS011;10527;52.124;5.196;2022-10-26T07:05:56;4.20;;;2.47;;
20731;SDS011;10527;52.124;5.196;2022-10-26T07:08:23;3.40;;;2.22;;
20731;SDS011;10527;52.124;5.196;2022-10-26T07:10:49;4.90;;;2.35;;
20731;SDS011;10527;52.124;5.196;2022-10-26T07:13:16;4.28;;;2.22;;
20731;SDS011;10527;52.124;5.196;2022-10-26T07:15:44;5.70;;;3.05;;
20731;SDS011;10527;52.124;5.196;2022-10-26T07:18:13;6.97;;;2.50;;
20731;SDS011;10527;52.124;5.196;2022-10-26T07:20:41;2.67;;;1.88;;
20731;SDS011;10527;52.124;5.196;2022-10-26T07:23:08;5.38;;;2.45;;
20731;SDS011;10527;52.124;5.196;2022-10-26T07:25:38;3.22;;;2.05;;
20731;SDS011;10527;52.124;5.196;2022-10-26T07:28:06;3.65;;;2.38;;
20731;SDS011;10527;52.124;5.196;2022-10-26T07:30:36;8.35;;;2.03;;
20731;SDS011;10527;52.124;5.196;2022-10-26T07:33:14;7.53;;;2.80;;
20731;SDS011;10527;52.124;5.196;2022-10-26T07:35:41;4.40;;;2.75;;
20731;SDS011;10527;52.124;5.196;2022-10-26T07:38:08;4.32;;;2.55;;
20731;SDS011;10527;52.124;5.196;2022-10-26T07:40:35;5.65;;;2.30;;
20731;SDS011;10527;52.124;5.196;2022-10-26T07:43:03;4.18;;;2.65;;
20731;SDS011;10527;52.124;5.196;2022-10-26T07:45:30;7.82;;;3.83;;
20731;SDS011;10527;52.124;5.196;2022-10-26T07:47:57;2.95;;;1.92;;
20731;SDS011;10527;52.124;5.196;2022-10-26T07:50:24;4.72;;;2.33;;
20731;SDS011;10527;52.124;5.196;2022-10-26T07:52:51;3.85;;;2.20;;
20731;SDS011;10527;52.124;5.196;2022-10-26T07:55:19;4.55;;;2.65;;
20731;SDS011;10527;52.124;5.196;2022-10-26T07:57:46;6.15;;;2.80;;
20731;SDS011;10527;52.124;5.196;2022-10-26T08:00:18;4.55;;;2.28;;
20731;SDS011;10527;52.124;5.196;2022-10-26T08:02:45;3.65;;;1.77;;
20731;SDS011;10527;52.124;5.196;2022-10-26T08:05:12;5.28;;;2.60;;
20731;SDS011;10527;52.124;5.196;2022-10-26T08:07:39;4.97;;;3.13;;
20731;SDS011;10527;52.124;5.196;2022-10-26T08:10:10;6.35;;;2.60;;
20731;SDS011;10527;52.124;5.196;2022-10-26T08:12:39;6.50;;;3.17;;
20731;SDS011;10527;52.124;5.196;2022-10-26T08:15:09;5.40;;;2.67;;
20731;SDS011;10527;52.124;5.196;2022-10-26T08:17:38;4.57;;;2.65;;
20731;SDS011;10527;52.124;5.196;2022-10-26T08:20:05;4.18;;;2.38;;
20731;SDS011;10527;52.124;5.196;2022-10-26T08:22:32;6.32;;;2.60;;
20731;SDS011;10527;52.124;5.196;2022-10-26T08:24:59;3.42;;;2.38;;
20731;SDS011;10527;52.124;5.196;2022-10-26T08:27:26;5.03;;;2.25;;
20731;SDS011;10527;52.124;5.196;2022-10-26T08:29:52;3.45;;;2.10;;
20731;SDS011;10527;52.124;5.196;2022-10-26T08:32:19;3.15;;;2.03;;
20731;SDS011;10527;52.124;5.196;2022-10-26T08:34:46;4.43;;;2.40;;
20731;SDS011;10527;52.124;5.196;2022-10-26T08:37:12;4.43;;;2.30;;
20731;SDS011;10527;52.124;5.196;2022-10-26T08:39:39;4.63;;;2.50;;
20731;SDS011;10527;52.124;5.196;2022-10-26T08:42:10;4.32;;;2.25;;
20731;SDS011;10527;52.124;5.196;2022-10-26T08:44:48;7.90;;;2.80;;
20731;SDS011;10527;52.124;5.196;2022-10-26T08:47:31;5.30;;;2.40;;
20731;SDS011;10527;52.124;5.196;2022-10-26T08:50:09;5.43;;;2.47;;
20731;SDS011;10527;52.124;5.196;2022-10-26T08:52:55;5.03;;;2.47;;
20731;SDS011;10527;52.124;5.196;2022-10-26T08:55:38;4.30;;;2.47;;
20731;SDS011;10527;52.124;5.196;2022-10-26T08:58:15;5.97;;;2.75;;
20731;SDS011;10527;52.124;5.196;2022-10-26T09:00:50;2.65;;;2.10;;
20731;SDS011;10527;52.124;5.196;2022-10-26T09:03:18;3.60;;;2.05;;
20731;SDS011;10527;52.124;5.196;2022-10-26T09:05:51;3.42;;;2.13;;
20731;SDS011;10527;52.124;5.196;2022-10-26T09:11:55;4.78;;;1.83;;
20731;SDS011;10527;52.124;5.196;2022-10-26T09:15:17;2.95;;;1.83;;
20731;SDS011;10527;52.124;5.196;2022-10-26T09:25:57;2.53;;;1.75;;
20731;SDS011;10527;52.124;5.196;2022-10-26T09:28:33;5.15;;;2.03;;
20731;SDS011;10527;52.124;5.196;2022-10-26T09:31:02;2.35;;;1.40;;
20731;SDS011;10527;52.124;5.196;2022-10-26T09:33:30;3.05;;;1.60;;
20731;SDS011;10527;52.124;5.196;2022-10-26T09:36:12;2.85;;;1.83;;
20731;SDS011;10527;52.124;5.196;2022-10-26T09:38:50;3.60;;;1.58;;
20731;SDS011;10527;52.124;5.196;2022-10-26T09:42:03;3.42;;;1.70;;
20731;SDS011;10527;52.124;5.196;2022-10-26T09:44:59;3.90;;;1.30;;
20731;SDS011;10527;52.124;5.196;2022-10-26T09:47:37;3.83;;;1.90;;
20731;SDS011;10527;52.124;5.196;2022-10-26T09:52:37;4.22;;;1.55;;
20731;SDS011;10527;52.124;5.196;2022-10-26T09:55:04;5.03;;;1.38;;
20731;SDS011;10527;52.124;5.196;2022-10-26T09:57:31;4.50;;;2.03;;
20731;SDS011;10527;52.124;5.196;2022-10-26T09:59:58;6.20;;;1.70;;
20731;SDS011;10527;52.124;5.196;2022-10-26T10:02:38;3.85;;;1.60;;
20731;SDS011;10527;52.124;5.196;2022-10-26T10:05:31;5.10;;;1.80;;
20731;SDS011;10527;52.124;5.196;2022-10-26T10:08:24;4.32;;;1.55;;
20731;SDS011;10527;52.124;5.196;2022-10-26T10:11:00;3.15;;;1.35;;
20731;SDS011;10527;52.124;5.196;2022-10-26T10:13:34;4.82;;;1.30;;
20731;SDS011;10527;52.124;5.196;2022-10-26T10:18:33;2.35;;;1.50;;
20731;SDS011;10527;52.124;5.196;2022-10-26T10:21:01;3.20;;;1.17;;
20731;SDS011;10527;52.124;5.196;2022-10-26T10:23:31;3.95;;;1.70;;
20731;SDS011;10527;52.124;5.196;2022-10-26T10:28:32;4.13;;;1.55;;
20731;SDS011;10527;52.124;5.196;2022-10-26T10:31:01;5.63;;;1.95;;
20731;SDS011;10527;52.124;5.196;2022-10-26T10:33:46;6.40;;;1.88;;
20731;SDS011;10527;52.124;5.196;2022-10-26T10:36:15;4.40;;;1.23;;
20731;SDS011;10527;52.124;5.196;2022-10-26T10:38:47;3.47;;;1.45;;
20731;SDS011;10527;52.124;5.196;2022-10-26T10:41:32;3.88;;;1.65;;
20731;SDS011;10527;52.124;5.196;2022-10-26T10:44:16;2.67;;;1.30;;
20731;SDS011;10527;52.124;5.196;2022-10-26T10:46:48;3.33;;;1.60;;
20731;SDS011;10527;52.124;5.196;2022-10-26T10:49:16;2.05;;;1.02;;
20731;SDS011;10527;52.124;5.196;2022-10-26T10:51:52;5.13;;;1.50;;
20731;SDS011;10527;52.124;5.196;2022-10-26T10:54:41;5.60;;;2.20;;
20731;SDS011;10527;52.124;5.196;2022-10-26T10:57:20;5.50;;;2.03;;
20731;SDS011;10527;52.124;5.196;2022-10-26T11:00:27;4.70;;;1.75;;
20731;SDS011;10527;52.124;5.196;2022-10-26T11:14:10;3.78;;;1.65;;
20731;SDS011;10527;52.124;5.196;2022-10-26T11:16:48;2.90;;;1.42;;
20731;SDS011;10527;52.124;5.196;2022-10-26T11:19:39;7.55;;;1.50;;
20731;SDS011;10527;52.124;5.196;2022-10-26T11:22:28;5.35;;;1.60;;
20731;SDS011;10527;52.124;5.196;2022-10-26T11:25:03;5.03;;;1.30;;
20731;SDS011;10527;52.124;5.196;2022-10-26T11:28:00;2.25;;;1.42;;
20731;SDS011;10527;52.124;5.196;2022-10-26T11:30:50;5.50;;;1.65;;
20731;SDS011;10527;52.124;5.196;2022-10-26T11:33:26;3.20;;;1.35;;
20731;SDS011;10527;52.124;5.196;2022-10-26T11:36:05;3.45;;;1.30;;
20731;SDS011;10527;52.124;5.196;2022-10-26T11:38:57;3.53;;;1.60;;
20731;SDS011;10527;52.124;5.196;2022-10-26T11:41:47;4.57;;;1.95;;
20731;SDS011;10527;52.124;5.196;2022-10-26T11:44:29;3.03;;;1.42;;
20731;SDS011;10527;52.124;5.196;2022-10-26T11:47:22;1.77;;;1.10;;
20731;SDS011;10527;52.124;5.196;2022-10-26T11:50:16;2.13;;;1.08;;
20731;SDS011;10527;52.124;5.196;2022-10-26T11:53:11;1.92;;;0.98;;
20731;SDS011;10527;52.124;5.196;2022-10-26T11:55:52;1.65;;;1.40;;
20731;SDS011;10527;52.124;5.196;2022-10-26T11:58:22;3.83;;;1.30;;
20731;SDS011;10527;52.124;5.196;2022-10-26T12:01:00;3.80;;;1.48;;
20731;SDS011;10527;52.124;5.196;2022-10-26T12:03:35;3.67;;;1.35;;
20731;SDS011;10527;52.124;5.196;2022-10-26T12:06:13;3.70;;;1.33;;
20731;SDS011;10527;52.124;5.196;2022-10-26T12:08:56;2.83;;;1.20;;
20731;SDS011;10527;52.124;5.196;2022-10-26T12:11:48;2.10;;;1.13;;
20731;SDS011;10527;52.124;5.196;2022-10-26T12:14:42;3.72;;;1.77;;
20731;SDS011;10527;52.124;5.196;2022-10-26T12:17:36;4.07;;;1.15;;
20731;SDS011;10527;52.124;5.196;2022-10-26T12:23:23;4.13;;;1.20;;
20731;SDS011;10527;52.124;5.196;2022-10-26T12:34:12;2.50;;;1.00;;
20731;SDS011;10527;52.124;5.196;2022-10-26T12:44:37;1.80;;;0.85;;
20731;SDS011;10527;52.124;5.196;2022-10-26T12:47:08;4.40;;;1.20;;
20731;SDS011;10527;52.124;5.196;2022-10-26T12:55:29;4.95;;;1.90;;
20731;SDS011;10527;52.124;5.196;2022-10-26T13:07:16;1.80;;;1.10;;
20731;SDS011;10527;52.124;5.196;2022-10-26T13:09:52;3.15;;;1.20;;
20731;SDS011;10527;52.124;5.196;2022-10-26T13:12:28;5.05;;;1.00;;
20731;SDS011;10527;52.124;5.196;2022-10-26T13:15:51;5.10;;;1.65;;
20731;SDS011;10527;52.124;5.196;2022-10-26T13:23:39;4.15;;;1.20;;
20731;SDS011;10527;52.124;5.196;2022-10-26T13:26:27;2.72;;;1.20;;
20731;SDS011;10527;52.124;5.196;2022-10-26T13:29:00;4.78;;;1.50;;
20731;SDS011;10527;52.124;5.196;2022-10-26T13:34:00;2.90;;;1.48;;
20731;SDS011;10527;52.124;5.196;2022-10-26T13:37:45;5.15;;;1.20;;
20731;SDS011;10527;52.124;5.196;2022-10-26T13:39:52;2.78;;;1.15;;
20731;SDS011;10527;52.124;5.196;2022-10-26T13:42:23;3.17;;;1.30;;
20731;SDS011;10527;52.124;5.196;2022-10-26T13:45:00;3.85;;;1.25;;
20731;SDS011;10527;52.124;5.196;2022-10-26T13:47:45;3.10;;;1.17;;
20731;SDS011;10527;52.124;5.196;2022-10-26T13:50:47;4.85;;;1.73;;
20731;SDS011;10527;52.124;5.196;2022-10-26T13:53:26;2.70;;;1.13;;
20731;SDS011;10527;52.124;5.196;2022-10-26T13:58:59;2.95;;;1.30;;
20731;SDS011;10527;52.124;5.196;2022-10-26T14:01:35;3.72;;;0.98;;
20731;SDS011;10527;52.124;5.196;2022-10-26T14:07:02;3.25;;;1.20;;
20731;SDS011;10527;52.124;5.196;2022-10-26T14:09:30;2.90;;;1.00;;
20731;SDS011;10527;52.124;5.196;2022-10-26T14:12:00;6.57;;;1.23;;
20731;SDS011;10527;52.124;5.196;2022-10-26T14:14:31;2.17;;;0.88;;
20731;SDS011;10527;52.124;5.196;2022-10-26T14:17:02;1.88;;;1.00;;
20731;SDS011;10527;52.124;5.196;2022-10-26T14:19:33;3.90;;;1.15;;
20731;SDS011;10527;52.124;5.196;2022-10-26T14:22:04;5.35;;;1.13;;
20731;SDS011;10527;52.124;5.196;2022-10-26T14:24:49;3.65;;;1.10;;
20731;SDS011;10527;52.124;5.196;2022-10-26T14:27:23;4.15;;;1.30;;
20731;SDS011;10527;52.124;5.196;2022-10-26T14:29:56;4.38;;;1.02;;
20731;SDS011;10527;52.124;5.196;2022-10-26T14:32:44;2.33;;;0.75;;
20731;SDS011;10527;52.124;5.196;2022-10-26T14:35:14;3.42;;;0.80;;
20731;SDS011;10527;52.124;5.196;2022-10-26T14:40:29;6.22;;;1.10;;
20731;SDS011;10527;52.124;5.196;2022-10-26T14:43:01;4.65;;;1.13;;
20731;SDS011;10527;52.124;5.196;2022-10-26T14:45:31;4.28;;;0.80;;
20731;SDS011;10527;52.124;5.196;2022-10-26T14:48:32;1.67;;;0.80;;
20731;SDS011;10527;52.124;5.196;2022-10-26T14:51:01;6.05;;;1.75;;
20731;SDS011;10527;52.124;5.196;2022-10-26T14:53:40;4.47;;;1.20;;
20731;SDS011;10527;52.124;5.196;2022-10-26T14:59:10;3.53;;;1.00;;
20731;SDS011;10527;52.124;5.196;2022-10-26T15:01:50;3.45;;;1.58;;
20731;SDS011;10527;52.124;5.196;2022-10-26T15:04:26;3.28;;;1.00;;
20731;SDS011;10527;52.124;5.196;2022-10-26T15:06:59;4.75;;;1.48;;
20731;SDS011;10527;52.124;5.196;2022-10-26T15:09:37;2.95;;;0.82;;
20731;SDS011;10527;52.124;5.196;2022-10-26T15:17:41;6.38;;;1.02;;
20731;SDS011;10527;52.124;5.196;2022-10-26T15:20:19;2.00;;;0.70;;
20731;SDS011;10527;52.124;5.196;2022-10-26T15:22:53;3.67;;;1.20;;
20731;SDS011;10527;52.124;5.196;2022-10-26T15:25:25;2.45;;;0.70;;
20731;SDS011;10527;52.124;5.196;2022-10-26T15:28:09;5.30;;;1.92;;
20731;SDS011;10527;52.124;5.196;2022-10-26T15:30:57;4.35;;;1.02;;
20731;SDS011;10527;52.124;5.196;2022-10-26T15:36:17;5.65;;;1.00;;
20731;SDS011;10527;52.124;5.196;2022-10-26T15:38:46;2.17;;;1.02;;
20731;SDS011;10527;52.124;5.196;2022-10-26T15:41:15;3.35;;;0.80;;
20731;SDS011;10527;52.124;5.196;2022-10-26T15:44:08;9.90;;;1.10;;
20731;SDS011;10527;52.124;5.196;2022-10-26T15:46:45;2.50;;;0.80;;
20731;SDS011;10527;52.124;5.196;2022-10-26T15:49:16;3.38;;;0.80;;
20731;SDS011;10527;52.124;5.196;2022-10-26T15:52:02;2.88;;;1.00;;
20731;SDS011;10527;52.124;5.196;2022-10-26T15:54:51;2.05;;;0.68;;
20731;SDS011;10527;52.124;5.196;2022-10-26T15:57:18;4.90;;;0.90;;
20731;SDS011;10527;52.124;5.196;2022-10-26T15:59:47;3.42;;;1.55;;
20731;SDS011;10527;52.124;5.196;2022-10-26T16:02:14;3.75;;;1.00;;
20731;SDS011;10527;52.124;5.196;2022-10-26T16:04:41;2.88;;;1.00;;
20731;SDS011;10527;52.124;5.196;2022-10-26T16:07:13;3.53;;;0.70;;
20731;SDS011;10527;52.124;5.196;2022-10-26T16:09:43;3.72;;;0.85;;
20731;SDS011;10527;52.124;5.196;2022-10-26T16:12:11;2.13;;;0.90;;
20731;SDS011;10527;52.124;5.196;2022-10-26T16:14:39;3.45;;;0.77;;
20731;SDS011;10527;52.124;5.196;2022-10-26T16:17:26;2.17;;;0.82;;
20731;SDS011;10527;52.124;5.196;2022-10-26T16:19:53;2.30;;;0.80;;
20731;SDS011;10527;52.124;5.196;2022-10-26T16:22:20;4.97;;;1.23;;
20731;SDS011;10527;52.124;5.196;2022-10-26T16:24:47;2.10;;;0.80;;
20731;SDS011;10527;52.124;5.196;2022-10-26T16:27:13;2.80;;;0.90;;
20731;SDS011;10527;52.124;5.196;2022-10-26T16:29:40;4.88;;;0.82;;
20731;SDS011;10527;52.124;5.196;2022-10-26T16:32:07;2.00;;;0.95;;
20731;SDS011;10527;52.124;5.196;2022-10-26T16:34:35;7.72;;;1.38;;
20731;SDS011;10527;52.124;5.196;2022-10-26T16:37:01;3.38;;;1.10;;
20731;SDS011;10527;52.124;5.196;2022-10-26T16:39:28;4.53;;;1.10;;
20731;SDS011;10527;52.124;5.196;2022-10-26T16:41:55;9.35;;;2.95;;
20731;SDS011;10527;52.124;5.196;2022-10-26T16:44:23;3.25;;;1.58;;
20731;SDS011;10527;52.124;5.196;2022-10-26T16:46:49;2.25;;;1.10;;
20731;SDS011;10527;52.124;5.196;2022-10-26T16:49:16;3.08;;;0.98;;
20731;SDS011;10527;52.124;5.196;2022-10-26T16:51:43;4.78;;;0.80;;
20731;SDS011;10527;52.124;5.196;2022-10-26T16:54:09;4.43;;;1.80;;
20731;SDS011;10527;52.124;5.196;2022-10-26T16:56:36;4.47;;;1.13;;
20731;SDS011;10527;52.124;5.196;2022-10-26T16:59:03;3.67;;;2.30;;
20731;SDS011;10527;52.124;5.196;2022-10-26T17:01:30;7.97;;;2.40;;
20731;SDS011;10527;52.124;5.196;2022-10-26T17:03:57;2.88;;;1.20;;
20731;SDS011;10527;52.124;5.196;2022-10-26T17:06:26;4.43;;;1.20;;
20731;SDS011;10527;52.124;5.196;2022-10-26T17:08:54;3.78;;;1.65;;
20731;SDS011;10527;52.124;5.196;2022-10-26T17:11:22;3.47;;;0.90;;
20731;SDS011;10527;52.124;5.196;2022-10-26T17:13:52;4.65;;;1.77;;
20731;SDS011;10527;52.124;5.196;2022-10-26T17:16:21;6.13;;;1.60;;
20731;SDS011;10527;52.124;5.196;2022-10-26T17:18:50;3.08;;;1.17;;
20731;SDS011;10527;52.124;5.196;2022-10-26T17:21:19;4.35;;;0.90;;
20731;SDS011;10527;52.124;5.196;2022-10-26T17:23:59;4.40;;;1.73;;
20731;SDS011;10527;52.124;5.196;2022-10-26T17:26:27;3.70;;;1.40;;
20731;SDS011;10527;52.124;5.196;2022-10-26T17:28:55;4.35;;;1.92;;
20731;SDS011;10527;52.124;5.196;2022-10-26T17:31:23;4.32;;;1.20;;
20731;SDS011;10527;52.124;5.196;2022-10-26T17:33:51;6.35;;;1.30;;
20731;SDS011;10527;52.124;5.196;2022-10-26T17:36:19;2.28;;;1.00;;
20731;SDS011;10527;52.124;5.196;2022-10-26T17:38:49;4.85;;;1.42;;
20731;SDS011;10527;52.124;5.196;2022-10-26T17:41:30;3.20;;;1.23;;
20731;SDS011;10527;52.124;5.196;2022-10-26T17:43:57;3.58;;;0.88;;
20731;SDS011;10527;52.124;5.196;2022-10-26T17:46:24;4.05;;;0.90;;